Time;durP1;ratioP1;P1;durP2;ratioP2;P2;SDS_P1;SDS_P2;PMS_P1;PMS_P2;Temp;Humidity;BMP_temperature;BMP_pressure;BME280_temperature;BME280_humidity;BME280_pressure;Samples;Min_cycle;Max_cycle;Signal;HPM_P1;HPM_P2
2022/07/16 00:03:44;;;;;;;;;;;;;;;;;;5036927;28;20237;-29
2022/07/16 00:06:10;;;;;;;;;;;;;;;;;;5036299;28;19921;-29
2022/07/16 00:08:36;;;;;;;;;;;;;;;;;;5035617;28;20314;-29
2022/07/16 00:11:02;;;;;;;;;;;;;;;;;;5036442;28;20386;-29
2022/07/16 00:13:28;;;;;;;;;;;;;;;;;;5036319;28;19909;-28
2022/07/16 00:15:55;;;;;;;;;;;;;;;;;;5036323;28;19913;-29
2022/07/16 00:21:05;;;;;;;;;;;;;;;;;;5036312;28;20012;-29
2022/07/16 00:23:31;;;;;;;;;;;;;;;;;;5036217;28;19940;-29
2022/07/16 00:25:57;;;;;;;;;;;;;;;;;;5036059;28;20264;-29
2022/07/16 00:28:23;;;;;;;;;;;;;;;;;;5036118;28;19915;-29
2022/07/16 00:30:49;;;;;;;;;;;;;;;;;;5036342;28;19914;-28
2022/07/16 00:33:15;;;;;;;;;;;;;;;;;;5035977;28;19909;-28
2022/07/16 00:35:41;;;;;;;;;;;;;;;;;;5035952;28;19913;-29
2022/07/16 00:38:07;;;;;;;;;;;;;;;;;;5034992;28;19909;-29
2022/07/16 00:40:33;;;;;;;;;;;;;;;;;;5035933;28;20365;-28
2022/07/16 00:43:01;;;;;;;;;;;;;;;;;;5036025;28;19996;-29
2022/07/16 00:45:27;;;;;;;;;;;;;;;;;;5035301;28;20364;-28
2022/07/16 00:47:53;;;;;;;;;;;;;;;;;;5035992;28;19963;-28
2022/07/16 00:50:19;;;;;;;;;;;;;;;;;;5035752;28;19909;-29
2022/07/16 00:52:45;;;;;;;;;;;;;;;;;;5035580;28;19920;-28
2022/07/16 00:55:11;;;;;;;;;;;;;;;;;;5034706;28;20291;-29
2022/07/16 00:57:37;;;;;;;;;;;;;;;;;;5035612;28;19923;-28
2022/07/16 01:00:03;;;;;;;;;;;;;;;;;;5035601;28;19920;-29
2022/07/16 01:02:29;;;;;;;;;;;;;;;;;;5035450;28;19953;-29
2022/07/16 01:04:55;;;;;;;;;;;;;;;;;;5035213;28;19917;-29
2022/07/16 01:07:22;;;;;;;;;;;;;;;;;;5035461;28;19978;-29
2022/07/16 01:09:48;;;;;;;;;;;;;;;;;;5035765;28;19920;-29
2022/07/16 01:12:14;;;;;;;;;;;;;;;;;;5035299;28;19948;-28
2022/07/16 01:14:40;;;;;;;;;;;;;;;;;;5035416;28;19921;-29
2022/07/16 01:17:07;;;;;;;;;;;;;;;;;;5035554;28;19914;-28
2022/07/16 01:19:33;;;;;;;;;;;;;;;;;;5035345;28;20239;-28
2022/07/16 01:21:59;;;;;;;;;;;;;;;;;;5035150;28;19988;-29
2022/07/16 01:24:25;;;;;;;;;;;;;;;;;;5035562;28;20008;-28
2022/07/16 01:26:51;;;;;;;;;;;;;;;;;;5034183;28;19956;-29
2022/07/16 01:29:17;;;;;;;;;;;;;;;;;;5035196;28;20344;-29
2022/07/16 01:31:43;;;;;;;;;;;;;;;;;;5035125;28;19996;-29
2022/07/16 01:34:25;;;;;;;;;;;;;;;;;;5035365;28;19959;-28
2022/07/16 01:36:51;;;;;;;;;;;;;;;;;;5035368;28;19978;-29
2022/07/16 01:39:17;;;;;;;;;;;;;;;;;;5035037;28;19909;-28
2022/07/16 01:41:42;;;;;;;;;;;;;;;;;;5034882;28;19988;-28
2022/07/16 01:44:08;;;;;;;;;;;;;;;;;;5034916;28;19935;-29
2022/07/16 01:46:34;;;;;;;;;;;;;;;;;;5034901;28;19983;-29
2022/07/16 01:49:00;;;;;;;;;;;;;;;;;;5034934;28;19909;-29
2022/07/16 01:51:26;;;;;;;;;;;;;;;;;;5034928;28;19920;-29
2022/07/16 01:53:52;;;;;;;;;;;;;;;;;;5034823;28;20340;-29
2022/07/16 01:56:18;;;;;;;;;;;;;;;;;;5036046;28;20263;-29
2022/07/16 01:58:44;;;;;;;;;;;;;;;;;;5039186;28;19910;-29
2022/07/16 02:01:10;;;;;;;;;;;;;;;;;;5038877;28;19913;-29
2022/07/16 02:03:36;;;;;;;;;;;;;;;;;;5038731;28;19909;-28
2022/07/16 02:06:02;;;;;;;;;;;;;;;;;;5037619;28;19987;-29
2022/07/16 02:08:28;;;;;;;;;;;;;;;;;;5038773;28;19909;-28
2022/07/16 02:10:54;;;;;;;;;;;;;;;;;;5038640;28;19940;-29
2022/07/16 02:13:20;;;;;;;;;;;;;;;;;;5038640;28;19909;-28
2022/07/16 02:15:46;;;;;;;;;;;;;;;;;;5037693;28;20376;-29
2022/07/16 02:18:12;;;;;;;;;;;;;;;;;;5038562;28;19913;-29
2022/07/16 02:20:38;;;;;;;;;;;;;;;;;;5038862;28;19909;-28
2022/07/16 02:23:04;;;;;;;;;;;;;;;;;;5038390;28;20391;-29
2022/07/16 02:25:30;;;;;;;;;;;;;;;;;;5038397;28;19967;-28
2022/07/16 02:28:08;;;;;;;;;;;;;;;;;;5038674;28;19913;-28
2022/07/16 02:30:34;;;;;;;;;;;;;;;;;;5038453;28;19913;-29
2022/07/16 02:33:00;;;;;;;;;;;;;;;;;;5038360;28;20011;-29
2022/07/16 02:35:26;;;;;;;;;;;;;;;;;;5037312;28;19967;-29
2022/07/16 02:37:52;;;;;;;;;;;;;;;;;;5038522;28;19913;-29
2022/07/16 02:40:18;;;;;;;;;;;;;;;;;;5038442;28;20261;-29
2022/07/16 02:42:44;;;;;;;;;;;;;;;;;;5038057;28;19909;-29
2022/07/16 02:45:11;;;;;;;;;;;;;;;;;;5037985;28;20506;-29
2022/07/16 02:47:37;;;;;;;;;;;;;;;;;;5038105;28;19910;-29
2022/07/16 02:50:03;;;;;;;;;;;;;;;;;;5038315;28;20014;-29
2022/07/16 02:52:29;;;;;;;;;;;;;;;;;;5038105;28;19979;-29
2022/07/16 02:54:55;;;;;;;;;;;;;;;;;;5038233;28;19914;-28
2022/07/16 02:57:21;;;;;;;;;;;;;;;;;;5037862;28;19971;-29
2022/07/16 02:59:47;;;;;;;;;;;;;;;;;;5038071;28;19913;-28
2022/07/16 03:02:13;;;;;;;;;;;;;;;;;;5037672;28;19920;-29
2022/07/16 03:04:39;;;;;;;;;;;;;;;;;;5037762;28;19917;-29
2022/07/16 03:07:05;;;;;;;;;;;;;;;;;;5037417;28;19924;-27
2022/07/16 03:09:31;;;;;;;;;;;;;;;;;;5037645;28;20329;-29
2022/07/16 03:11:57;;;;;;;;;;;;;;;;;;5036573;28;19912;-28
2022/07/16 03:14:23;;;;;;;;;;;;;;;;;;5037794;28;20337;-28
2022/07/16 03:16:49;;;;;;;;;;;;;;;;;;5037484;28;19913;-29
2022/07/16 03:19:15;;;;;;;;;;;;;;;;;;5037431;28;19920;-31
2022/07/16 03:21:41;;;;;;;;;;;;;;;;;;5036541;28;19913;-29
2022/07/16 03:24:07;;;;;;;;;;;;;;;;;;5037600;28;20004;-29
2022/07/16 03:26:33;;;;;;;;;;;;;;;;;;5036266;28;20348;-29
2022/07/16 03:28:59;;;;;;;;;;;;;;;;;;5037276;28;19909;-29
2022/07/16 03:31:25;;;;;;;;;;;;;;;;;;5037220;28;20315;-29
2022/07/16 03:33:51;;;;;;;;;;;;;;;;;;5037107;28;19912;-29
2022/07/16 03:36:17;;;;;;;;;;;;;;;;;;5037397;28;19913;-28
2022/07/16 03:41:27;;;;;;;;;;;;;;;;;;5037373;28;19923;-29
2022/07/16 03:43:53;;;;;;;;;;;;;;;;;;5036878;28;19913;-29
2022/07/16 03:46:19;;;;;;;;;;;;;;;;;;5036872;28;20264;-28
2022/07/16 03:48:45;;;;;;;;;;;;;;;;;;5036846;28;19909;-29
2022/07/16 03:51:11;;;;;;;;;;;;;;;;;;5037123;28;19988;-29
2022/07/16 03:53:37;;;;;;;;;;;;;;;;;;5036654;28;19913;-29
2022/07/16 03:56:03;;;;;;;;;;;;;;;;;;5035701;28;20355;-28
2022/07/16 03:58:29;;;;;;;;;;;;;;;;;;5036592;28;19924;-28
2022/07/16 04:00:55;;;;;;;;;;;;;;;;;;5036560;28;20004;-28
2022/07/16 04:03:21;;;;;;;;;;;;;;;;;;5036453;28;19940;-28
2022/07/16 04:05:47;;;;;;;;;;;;;;;;;;5035231;28;20312;-28
2022/07/16 04:08:13;;;;;;;;;;;;;;;;;;5036451;28;19913;-30
2022/07/16 04:10:39;;;;;;;;;;;;;;;;;;5036788;28;19917;-29
2022/07/16 04:13:05;;;;;;;;;;;;;;;;;;5036483;28;19913;-29
2022/07/16 04:15:31;;;;;;;;;;;;;;;;;;5036636;28;19953;-29
2022/07/16 04:17:57;;;;;;;;;;;;;;;;;;5036224;28;19920;-29
2022/07/16 04:20:23;;;;;;;;;;;;;;;;;;5035870;28;20000;-29
2022/07/16 04:22:49;;;;;;;;;;;;;;;;;;5036142;28;19924;-29
2022/07/16 04:25:15;;;;;;;;;;;;;;;;;;5036031;28;19921;-29
2022/07/16 04:27:41;;;;;;;;;;;;;;;;;;5036644;28;19924;-29
2022/07/16 04:30:07;;;;;;;;;;;;;;;;;;5036418;28;19910;-29
2022/07/16 04:32:33;;;;;;;;;;;;;;;;;;5035991;28;19932;-28
2022/07/16 04:34:59;;;;;;;;;;;;;;;;;;5035017;28;19910;-29
2022/07/16 04:37:25;;;;;;;;;;;;;;;;;;5035850;28;19920;-29
2022/07/16 04:39:51;;;;;;;;;;;;;;;;;;5036186;28;20004;-29
2022/07/16 04:42:17;;;;;;;;;;;;;;;;;;5036110;28;19912;-29
2022/07/16 04:44:43;;;;;;;;;;;;;;;;;;5036137;28;19916;-29
2022/07/16 04:47:09;;;;;;;;;;;;;;;;;;5034823;28;19916;-30
2022/07/16 04:49:35;;;;;;;;;;;;;;;;;;5035816;28;19913;-29
2022/07/16 04:52:01;;;;;;;;;;;;;;;;;;5035668;28;20382;-29
2022/07/16 04:54:27;;;;;;;;;;;;;;;;;;5035693;28;19949;-29
2022/07/16 04:56:53;;;;;;;;;;;;;;;;;;5035733;28;19914;-29
2022/07/16 04:59:19;;;;;;;;;;;;;;;;;;5035615;28;19913;-29
2022/07/16 05:01:45;;;;;;;;;;;;;;;;;;5034527;28;19913;-29
2022/07/16 05:04:11;;;;;;;;;;;;;;;;;;5035270;28;19924;-29
2022/07/16 05:06:37;;;;;;;;;;;;;;;;;;5035637;28;20280;-29
2022/07/16 05:09:03;;;;;;;;;;;;;;;;;;5035389;28;19913;-29
2022/07/16 05:11:29;;;;;;;;;;;;;;;;;;5034414;28;19913;-28
2022/07/16 05:13:55;;;;;;;;;;;;;;;;;;5035265;28;20315;-29
2022/07/16 05:16:22;;;;;;;;;;;;;;;;;;5035516;28;19917;-29
2022/07/16 05:18:48;;;;;;;;;;;;;;;;;;5035272;28;19909;-29
2022/07/16 05:21:14;;;;;;;;;;;;;;;;;;5035196;28;20182;-29
2022/07/16 05:23:40;;;;;;;;;;;;;;;;;;5035101;28;19916;-29
2022/07/16 05:26:06;;;;;;;;;;;;;;;;;;5035098;28;19917;-29
2022/07/16 05:28:32;;;;;;;;;;;;;;;;;;5035321;28;19913;-29
2022/07/16 05:30:57;;;;;;;;;;;;;;;;;;5034956;28;20045;-30
2022/07/16 05:33:23;;;;;;;;;;;;;;;;;;5035091;28;19959;-29
2022/07/16 05:35:49;;;;;;;;;;;;;;;;;;5035086;28;19913;-29
2022/07/16 05:38:15;;;;;;;;;;;;;;;;;;5035016;28;20271;-29
2022/07/16 05:40:41;;;;;;;;;;;;;;;;;;5034985;28;19913;-29
2022/07/16 05:43:07;;;;;;;;;;;;;;;;;;5034940;28;20379;-28
2022/07/16 05:45:33;;;;;;;;;;;;;;;;;;5034909;28;19920;-29
2022/07/16 05:47:59;;;;;;;;;;;;;;;;;;5033938;28;19917;-29
2022/07/16 05:50:25;;;;;;;;;;;;;;;;;;5035242;28;20221;-29
2022/07/16 05:52:51;;;;;;;;;;;;;;;;;;5034854;28;19921;-29
2022/07/16 05:55:17;;;;;;;;;;;;;;;;;;5034845;28;19913;-29
2022/07/16 05:57:43;;;;;;;;;;;;;;;;;;5034842;28;19913;-29
2022/07/16 06:00:10;;;;;;;;;;;;;;;;;;5033937;28;19974;-29
2022/07/16 06:02:36;;;;;;;;;;;;;;;;;;5033783;28;19913;-29
2022/07/16 06:05:02;;;;;;;;;;;;;;;;;;5033594;28;19932;-29
2022/07/16 06:07:28;;;;;;;;;;;;;;;;;;5034956;28;19959;-29
2022/07/16 06:09:54;;;;;;;;;;;;;;;;;;5034587;28;19971;-29
2022/07/16 06:12:20;;;;;;;;;;;;;;;;;;5033723;28;19920;-29
2022/07/16 06:14:46;;;;;;;;;;;;;;;;;;5034947;28;20344;-29
2022/07/16 06:17:13;;;;;;;;;;;;;;;;;;5033625;28;19924;-29
2022/07/16 06:19:39;;;;;;;;;;;;;;;;;;5034865;28;19971;-30
2022/07/16 06:22:05;;;;;;;;;;;;;;;;;;5034441;28;19917;-29
2022/07/16 06:24:31;;;;;;;;;;;;;;;;;;5034505;28;20375;-29
2022/07/16 06:26:57;;;;;;;;;;;;;;;;;;5033407;28;19924;-30
2022/07/16 06:29:23;;;;;;;;;;;;;;;;;;5034530;28;19913;-28
2022/07/16 06:31:49;;;;;;;;;;;;;;;;;;5033430;28;19924;-29
2022/07/16 06:34:15;;;;;;;;;;;;;;;;;;5033467;28;20331;-29
2022/07/16 06:36:41;;;;;;;;;;;;;;;;;;5034324;28;19924;-29
2022/07/16 06:39:08;;;;;;;;;;;;;;;;;;5034469;28;19928;-29
2022/07/16 06:41:34;;;;;;;;;;;;;;;;;;5034455;28;20233;-29
2022/07/16 06:44:00;;;;;;;;;;;;;;;;;;5037915;28;19917;-29
2022/07/16 06:46:26;;;;;;;;;;;;;;;;;;5037953;28;19917;-29
2022/07/16 06:48:52;;;;;;;;;;;;;;;;;;5038184;28;19917;-29
2022/07/16 06:51:18;;;;;;;;;;;;;;;;;;5036857;28;20318;-29
2022/07/16 06:53:44;;;;;;;;;;;;;;;;;;5037963;28;19963;-29
2022/07/16 06:56:10;;;;;;;;;;;;;;;;;;5037684;28;19920;-29
2022/07/16 06:58:36;;;;;;;;;;;;;;;;;;5037689;28;20300;-29
2022/07/16 07:01:02;;;;;;;;;;;;;;;;;;5036767;28;19928;-31
2022/07/16 07:03:29;;;;;;;;;;;;;;;;;;5036695;28;19954;-29
2022/07/16 07:05:55;;;;;;;;;;;;;;;;;;5037271;28;19982;-29
2022/07/16 07:08:21;;;;;;;;;;;;;;;;;;5037592;28;19924;-30
2022/07/16 07:10:47;;;;;;;;;;;;;;;;;;5037512;28;19959;-29
2022/07/16 07:13:13;;;;;;;;;;;;;;;;;;5036432;28;19909;-29
2022/07/16 07:15:39;;;;;;;;;;;;;;;;;;5037455;28;19912;-29
2022/07/16 07:18:05;;;;;;;;;;;;;;;;;;5036443;28;19919;-29
2022/07/16 07:20:31;;;;;;;;;;;;;;;;;;5037539;28;19913;-28
2022/07/16 07:22:57;;;;;;;;;;;;;;;;;;5037294;28;19925;-29
2022/07/16 07:25:23;;;;;;;;;;;;;;;;;;5037236;28;19921;-29
2022/07/16 07:27:49;;;;;;;;;;;;;;;;;;5036201;28;19921;-30
2022/07/16 07:30:15;;;;;;;;;;;;;;;;;;5037571;28;19959;-30
2022/07/16 07:32:41;;;;;;;;;;;;;;;;;;5036123;28;19913;-29
2022/07/16 07:35:07;;;;;;;;;;;;;;;;;;5037096;28;19917;-29
2022/07/16 07:37:33;;;;;;;;;;;;;;;;;;5036105;28;19913;-29
2022/07/16 07:40:01;;;;;;;;;;;;;;;;;;5037042;28;19920;-30
2022/07/16 07:42:27;;;;;;;;;;;;;;;;;;5037185;28;19917;-28
2022/07/16 07:44:53;;;;;;;;;;;;;;;;;;5035842;28;19935;-29
2022/07/16 07:47:19;;;;;;;;;;;;;;;;;;5036995;28;20021;-29
2022/07/16 07:49:45;;;;;;;;;;;;;;;;;;5036675;28;19917;-29
2022/07/16 07:52:13;;;;;;;;;;;;;;;;;;5036616;28;19983;-29
2022/07/16 07:54:39;;;;;;;;;;;;;;;;;;5035515;28;19963;-29
2022/07/16 07:57:05;;;;;;;;;;;;;;;;;;5036613;28;19964;-29
2022/07/16 07:59:31;;;;;;;;;;;;;;;;;;5036550;28;19935;-29
2022/07/16 08:01:57;;;;;;;;;;;;;;;;;;5036676;28;19916;-29
2022/07/16 08:04:23;;;;;;;;;;;;;;;;;;5036387;28;20356;-29
2022/07/16 08:06:49;;;;;;;;;;;;;;;;;;5035347;28;19921;-29
2022/07/16 08:09:15;;;;;;;;;;;;;;;;;;5036342;28;19913;-29
2022/07/16 08:11:41;;;;;;;;;;;;;;;;;;5036254;28;19975;-29
2022/07/16 08:14:07;;;;;;;;;;;;;;;;;;5036498;28;19917;-29
2022/07/16 08:16:33;;;;;;;;;;;;;;;;;;5036463;28;19913;-29
2022/07/16 08:18:59;;;;;;;;;;;;;;;;;;5036413;28;20256;-29
2022/07/16 08:21:25;;;;;;;;;;;;;;;;;;5035226;28;19913;-29
2022/07/16 08:26:35;;;;;;;;;;;;;;;;;;5036107;28;19936;-29
2022/07/16 08:29:01;;;;;;;;;;;;;;;;;;5036300;28;19921;-29
2022/07/16 08:31:27;;;;;;;;;;;;;;;;;;5036145;28;19916;-29
2022/07/16 08:33:53;;;;;;;;;;;;;;;;;;5036015;28;19920;-29
2022/07/16 08:36:19;;;;;;;;;;;;;;;;;;5036003;28;20336;-29
2022/07/16 08:38:46;;;;;;;;;;;;;;;;;;5035967;28;19996;-29
2022/07/16 08:41:12;;;;;;;;;;;;;;;;;;5035689;28;19917;-29
2022/07/16 08:43:38;;;;;;;;;;;;;;;;;;5035821;28;20348;-29
2022/07/16 08:46:04;;;;;;;;;;;;;;;;;;5035730;28;19917;-29
2022/07/16 08:48:30;;;;;;;;;;;;;;;;;;5034809;28;19984;-29
2022/07/16 08:50:56;;;;;;;;;;;;;;;;;;5035869;28;19920;-29
2022/07/16 08:53:22;;;;;;;;;;;;;;;;;;5035556;28;19925;-29
2022/07/16 08:55:48;;;;;;;;;;;;;;;;;;5035630;28;19909;-30
2022/07/16 08:58:14;;;;;;;;;;;;;;;;;;5035557;28;19924;-30
2022/07/16 09:00:40;;;;;;;;;;;;;;;;;;5035604;28;19913;-30
2022/07/16 09:03:06;;;;;;;;;;;;;;;;;;5035382;28;19913;-29
2022/07/16 09:05:32;;;;;;;;;;;;;;;;;;5038822;28;19936;-29
2022/07/16 09:07:58;;;;;;;;;;;;;;;;;;5035364;28;19917;-29
2022/07/16 09:10:24;;;;;;;;;;;;;;;;;;5034436;28;20225;-29
2022/07/16 09:12:50;;;;;;;;;;;;;;;;;;5035154;28;19967;-29
2022/07/16 09:15:16;;;;;;;;;;;;;;;;;;5035711;28;19913;-29
2022/07/16 09:17:42;;;;;;;;;;;;;;;;;;5035250;28;19909;-29
2022/07/16 09:20:08;;;;;;;;;;;;;;;;;;5035459;28;19967;-29
2022/07/16 09:22:34;;;;;;;;;;;;;;;;;;5035134;28;20066;-29
2022/07/16 09:25:00;;;;;;;;;;;;;;;;;;5035375;28;19952;-29
2022/07/16 09:27:26;;;;;;;;;;;;;;;;;;5035113;28;19913;-29
2022/07/16 09:29:52;;;;;;;;;;;;;;;;;;5034112;28;19913;-29
2022/07/16 09:32:18;;;;;;;;;;;;;;;;;;5034016;28;20372;-29
2022/07/16 09:34:44;;;;;;;;;;;;;;;;;;5035033;28;19909;-29
2022/07/16 09:37:10;;;;;;;;;;;;;;;;;;5035283;28;20370;-29
2022/07/16 09:39:36;;;;;;;;;;;;;;;;;;5034981;28;19909;-29
2022/07/16 09:42:02;;;;;;;;;;;;;;;;;;5035111;28;19917;-29
2022/07/16 09:44:28;;;;;;;;;;;;;;;;;;5035023;28;20318;-29
2022/07/16 09:46:54;;;;;;;;;;;;;;;;;;5035091;28;20268;-29
2022/07/16 09:49:20;;;;;;;;;;;;;;;;;;5034911;28;19909;-29
2022/07/16 09:51:46;;;;;;;;;;;;;;;;;;5034857;28;19910;-29
2022/07/16 09:54:12;;;;;;;;;;;;;;;;;;5034887;28;19924;-29
2022/07/16 09:56:38;;;;;;;;;;;;;;;;;;5034764;28;19913;-29
2022/07/16 09:59:05;;;;;;;;;;;;;;;;;;5035075;28;19985;-29
2022/07/16 10:01:31;;;;;;;;;;;;;;;;;;5033831;28;20491;-29
2022/07/16 10:03:57;;;;;;;;;;;;;;;;;;5034755;28;19956;-29
2022/07/16 10:06:23;;;;;;;;;;;;;;;;;;5034496;28;19921;-29
2022/07/16 10:08:49;;;;;;;;;;;;;;;;;;5034765;28;19932;-29
2022/07/16 10:11:15;;;;;;;;;;;;;;;;;;5034741;28;20004;-29
2022/07/16 10:13:42;;;;;;;;;;;;;;;;;;5034633;28;20279;-29
2022/07/16 10:16:08;;;;;;;;;;;;;;;;;;5034774;28;19909;-30
2022/07/16 10:18:34;;;;;;;;;;;;;;;;;;5038142;28;19995;-29
2022/07/16 10:21:00;;;;;;;;;;;;;;;;;;5037606;28;19909;-29
2022/07/16 10:23:26;;;;;;;;;;;;;;;;;;5038457;28;20326;-29
2022/07/16 10:25:52;;;;;;;;;;;;;;;;;;5038651;28;19921;-29
2022/07/16 10:28:18;;;;;;;;;;;;;;;;;;5037437;28;19909;-29
2022/07/16 10:30:44;;;;;;;;;;;;;;;;;;5037476;28;19912;-29
2022/07/16 10:33:12;;;;;;;;;;;;;;;;;;5038243;28;19913;-29
2022/07/16 10:35:41;;;;;;;;;;;;;;;;;;5038369;28;19909;-29
2022/07/16 10:38:07;;;;;;;;;;;;;;;;;;5037303;28;19913;-29
2022/07/16 10:40:33;;;;;;;;;;;;;;;;;;5038604;28;19909;-29
2022/07/16 10:42:59;;;;;;;;;;;;;;;;;;5038099;28;19996;-29
2022/07/16 10:45:26;;;;;;;;;;;;;;;;;;5038039;28;19983;-29
2022/07/16 10:47:52;;;;;;;;;;;;;;;;;;5038306;28;19924;-29
2022/07/16 10:50:18;;;;;;;;;;;;;;;;;;5038075;28;20332;-29
2022/07/16 10:52:44;;;;;;;;;;;;;;;;;;5037966;28;19924;-30
2022/07/16 10:55:10;;;;;;;;;;;;;;;;;;5037975;28;19910;-29
2022/07/16 10:57:36;;;;;;;;;;;;;;;;;;5037913;28;19913;-29
2022/07/16 11:00:03;;;;;;;;;;;;;;;;;;5037877;28;19932;-29
2022/07/16 11:02:29;;;;;;;;;;;;;;;;;;5038033;28;19959;-29
2022/07/16 11:04:55;;;;;;;;;;;;;;;;;;5037657;28;20268;-28
2022/07/16 11:07:21;;;;;;;;;;;;;;;;;;5037727;28;19964;-29
2022/07/16 11:09:47;;;;;;;;;;;;;;;;;;5037769;28;19909;-29
2022/07/16 11:12:14;;;;;;;;;;;;;;;;;;5037894;28;19921;-29
2022/07/16 11:14:40;;;;;;;;;;;;;;;;;;5037699;28;19920;-29
2022/07/16 11:17:06;;;;;;;;;;;;;;;;;;5037618;28;19923;-29
2022/07/16 11:19:32;;;;;;;;;;;;;;;;;;5037531;28;19913;-29
2022/07/16 11:21:58;;;;;;;;;;;;;;;;;;5037729;28;19921;-29
2022/07/16 11:24:24;;;;;;;;;;;;;;;;;;5037523;28;19917;-29
2022/07/16 11:26:51;;;;;;;;;;;;;;;;;;5037351;28;20283;-29
2022/07/16 11:29:17;;;;;;;;;;;;;;;;;;5037390;28;20267;-29
2022/07/16 11:31:43;;;;;;;;;;;;;;;;;;5037322;28;19913;-29
2022/07/16 11:34:09;;;;;;;;;;;;;;;;;;5037232;28;19909;-29
2022/07/16 11:36:35;;;;;;;;;;;;;;;;;;5037257;28;20348;-29
2022/07/16 11:39:01;;;;;;;;;;;;;;;;;;5037242;28;19916;-29
2022/07/16 11:41:28;;;;;;;;;;;;;;;;;;5037418;28;20317;-29
2022/07/16 11:43:54;;;;;;;;;;;;;;;;;;5037050;28;19913;-29
2022/07/16 11:46:20;;;;;;;;;;;;;;;;;;5037323;28;19991;-29
2022/07/16 11:48:46;;;;;;;;;;;;;;;;;;5036985;28;19913;-29
2022/07/16 11:51:12;;;;;;;;;;;;;;;;;;5037239;28;19917;-29
2022/07/16 11:53:38;;;;;;;;;;;;;;;;;;5036860;28;19910;-29
2022/07/16 11:56:05;;;;;;;;;;;;;;;;;;5036873;28;20352;-29
2022/07/16 11:58:31;;;;;;;;;;;;;;;;;;5036895;28;19971;-31
2022/07/16 12:00:57;;;;;;;;;;;;;;;;;;5036809;28;19917;-29
2022/07/16 12:03:23;;;;;;;;;;;;;;;;;;5036705;28;19913;-29
2022/07/16 12:05:49;;;;;;;;;;;;;;;;;;5036408;28;19931;-29
2022/07/16 12:08:15;;;;;;;;;;;;;;;;;;5036620;28;19909;-29
2022/07/16 12:10:42;;;;;;;;;;;;;;;;;;5036916;28;20281;-29
2022/07/16 12:13:08;;;;;;;;;;;;;;;;;;5036482;28;20263;-30
2022/07/16 12:15:34;;;;;;;;;;;;;;;;;;5036781;28;20239;-30
2022/07/16 12:18:00;;;;;;;;;;;;;;;;;;5036430;28;19940;-29
2022/07/16 12:20:26;;;;;;;;;;;;;;;;;;5036683;28;19932;-29
2022/07/16 12:22:52;;;;;;;;;;;;;;;;;;5036280;28;19967;-29
2022/07/16 12:25:18;;;;;;;;;;;;;;;;;;5036294;28;19908;-30
2022/07/16 12:27:44;;;;;;;;;;;;;;;;;;5036244;28;19913;-29
2022/07/16 12:30:10;;;;;;;;;;;;;;;;;;5036533;28;19909;-29
2022/07/16 12:32:36;;;;;;;;;;;;;;;;;;5036104;28;19982;-30
2022/07/16 12:35:02;;;;;;;;;;;;;;;;;;5036127;28;19979;-29
2022/07/16 12:37:28;;;;;;;;;;;;;;;;;;5036132;28;19987;-29
2022/07/16 12:39:54;;;;;;;;;;;;;;;;;;5035350;28;20005;-29
2022/07/16 12:42:20;;;;;;;;;;;;;;;;;;5035998;28;20008;-29
2022/07/16 12:44:46;;;;;;;;;;;;;;;;;;5036241;28;19975;-29
2022/07/16 12:47:12;;;;;;;;;;;;;;;;;;5035885;28;19925;-29
2022/07/16 12:49:38;;;;;;;;;;;;;;;;;;5035905;28;19917;-29
2022/07/16 12:52:04;;;;;;;;;;;;;;;;;;5035773;28;20409;-30
2022/07/16 12:58:47;;;;;;;;;;;;;;;;;;5035768;28;19913;-29
2022/07/16 13:00:00;;;;;;;;;;;;;;;;;;5035730;28;19920;-29
2022/07/16 13:02:27;;;;;;;;;;;;;;;;;;5035566;28;19974;-29
2022/07/16 13:04:53;;;;;;;;;;;;;;;;;;5035759;28;20256;-30
2022/07/16 13:07:19;;;;;;;;;;;;;;;;;;5035837;28;19921;-29
2022/07/16 13:09:45;;;;;;;;;;;;;;;;;;5036027;28;19970;-30
2022/07/16 13:12:11;;;;;;;;;;;;;;;;;;5035645;28;20372;-29
2022/07/16 13:14:37;;;;;;;;;;;;;;;;;;5035774;28;19909;-29
2022/07/16 13:17:03;;;;;;;;;;;;;;;;;;5035432;28;19913;-29
2022/07/16 13:19:29;;;;;;;;;;;;;;;;;;5035403;28;20260;-30
2022/07/16 13:21:55;;;;;;;;;;;;;;;;;;5035377;28;19913;-29
2022/07/16 13:24:21;;;;;;;;;;;;;;;;;;5035348;28;19913;-30
2022/07/16 13:26:47;;;;;;;;;;;;;;;;;;5035795;28;19924;-30
2022/07/16 13:29:13;;;;;;;;;;;;;;;;;;5035576;28;19909;-29
2022/07/16 13:31:39;;;;;;;;;;;;;;;;;;5035248;28;20407;-30
2022/07/16 13:34:05;;;;;;;;;;;;;;;;;;5035133;28;19913;-29
2022/07/16 13:36:31;;;;;;;;;;;;;;;;;;5035236;28;19909;-30
2022/07/16 13:38:57;;;;;;;;;;;;;;;;;;5035207;28;19913;-29
2022/07/16 13:41:23;;;;;;;;;;;;;;;;;;5035416;28;19913;-30
2022/07/16 13:43:49;;;;;;;;;;;;;;;;;;5035083;28;19909;-30
2022/07/16 13:46:15;;;;;;;;;;;;;;;;;;5035025;28;19917;-30
2022/07/16 13:48:41;;;;;;;;;;;;;;;;;;5035376;28;19916;-30
2022/07/16 13:51:07;;;;;;;;;;;;;;;;;;5035902;28;19924;-29
2022/07/16 13:53:33;;;;;;;;;;;;;;;;;;5039201;28;19916;-29
2022/07/16 13:55:59;;;;;;;;;;;;;;;;;;5039465;28;19913;-29
2022/07/16 13:58:25;;;;;;;;;;;;;;;;;;5039130;28;20393;-29
2022/07/16 14:00:51;;;;;;;;;;;;;;;;;;5039054;28;19971;-29
2022/07/16 14:03:17;;;;;;;;;;;;;;;;;;5038998;28;19909;-29
2022/07/16 14:05:43;;;;;;;;;;;;;;;;;;5038689;28;19921;-29
2022/07/16 14:08:09;;;;;;;;;;;;;;;;;;5038925;28;20360;-29
2022/07/16 14:10:36;;;;;;;;;;;;;;;;;;5039210;28;19913;-30
2022/07/16 14:13:02;;;;;;;;;;;;;;;;;;5039053;28;19928;-30
2022/07/16 14:15:29;;;;;;;;;;;;;;;;;;5038826;28;19909;-29
2022/07/16 14:17:56;;;;;;;;;;;;;;;;;;5038777;28;19971;-29
2022/07/16 14:20:22;;;;;;;;;;;;;;;;;;5038776;28;19935;-29
2022/07/16 14:22:48;;;;;;;;;;;;;;;;;;5038865;28;20325;-30
2022/07/16 14:25:14;;;;;;;;;;;;;;;;;;5038548;28;19916;-29
2022/07/16 14:27:40;;;;;;;;;;;;;;;;;;5038838;28;20247;-30
2022/07/16 14:30:06;;;;;;;;;;;;;;;;;;5038541;28;19909;-29
2022/07/16 14:32:32;;;;;;;;;;;;;;;;;;5038421;28;19928;-29
2022/07/16 14:34:59;;;;;;;;;;;;;;;;;;5038696;28;20402;-29
2022/07/16 14:37:25;;;;;;;;;;;;;;;;;;5038469;28;19909;-29
2022/07/16 14:39:51;;;;;;;;;;;;;;;;;;5037373;28;19913;-29
2022/07/16 14:42:17;;;;;;;;;;;;;;;;;;5038282;28;19909;-28
2022/07/16 14:44:43;;;;;;;;;;;;;;;;;;5038288;28;19924;-29
2022/07/16 14:47:09;;;;;;;;;;;;;;;;;;5038185;28;19917;-29
2022/07/16 14:49:35;;;;;;;;;;;;;;;;;;5037270;28;19921;-29
2022/07/16 14:52:01;;;;;;;;;;;;;;;;;;5038316;28;19913;-29
2022/07/16 14:54:27;;;;;;;;;;;;;;;;;;5038392;28;19963;-29
2022/07/16 14:56:53;;;;;;;;;;;;;;;;;;5038302;28;19913;-29
2022/07/16 14:59:19;;;;;;;;;;;;;;;;;;5038047;28;19909;-29
2022/07/16 15:01:45;;;;;;;;;;;;;;;;;;5037941;28;19913;-29
2022/07/16 15:04:12;;;;;;;;;;;;;;;;;;5037477;28;19909;-29
2022/07/16 15:06:38;;;;;;;;;;;;;;;;;;5037603;28;20340;-30
2022/07/16 15:09:04;;;;;;;;;;;;;;;;;;5037839;28;19967;-29
2022/07/16 15:11:30;;;;;;;;;;;;;;;;;;5037795;28;19913;-29
2022/07/16 15:13:56;;;;;;;;;;;;;;;;;;5037669;28;20332;-31
2022/07/16 15:16:22;;;;;;;;;;;;;;;;;;5037945;28;19917;-29
2022/07/16 15:18:48;;;;;;;;;;;;;;;;;;5037868;28;19940;-29
2022/07/16 15:21:14;;;;;;;;;;;;;;;;;;5037562;28;19913;-30
2022/07/16 15:23:40;;;;;;;;;;;;;;;;;;5037570;28;19909;-29
2022/07/16 15:26:06;;;;;;;;;;;;;;;;;;5037414;28;19983;-29
2022/07/16 15:28:32;;;;;;;;;;;;;;;;;;5037726;28;19921;-30
2022/07/16 15:30:58;;;;;;;;;;;;;;;;;;5037399;28;19917;-29
2022/07/16 15:33:42;;;;;;;;;;;;;;;;;;5037263;28;19909;-29
2022/07/16 15:36:09;;;;;;;;;;;;;;;;;;5037649;28;19986;-29
2022/07/16 15:38:35;;;;;;;;;;;;;;;;;;5037285;28;20003;-29
2022/07/16 15:41:02;;;;;;;;;;;;;;;;;;5037207;28;20000;-29
2022/07/16 15:43:28;;;;;;;;;;;;;;;;;;5037176;28;20055;-29
2022/07/16 15:45:54;;;;;;;;;;;;;;;;;;5037308;28;20256;-29
2022/07/16 15:48:20;;;;;;;;;;;;;;;;;;5037047;28;19909;-29
2022/07/16 15:50:46;;;;;;;;;;;;;;;;;;5037393;28;19921;-29
2022/07/16 15:53:12;;;;;;;;;;;;;;;;;;5035981;28;20363;-30
2022/07/16 15:55:38;;;;;;;;;;;;;;;;;;5036981;28;19970;-29
2022/07/16 15:58:04;;;;;;;;;;;;;;;;;;5037203;28;19920;-29
2022/07/16 16:00:30;;;;;;;;;;;;;;;;;;5036930;28;19909;-29
2022/07/16 16:02:56;;;;;;;;;;;;;;;;;;5037008;28;20399;-29
2022/07/16 16:05:22;;;;;;;;;;;;;;;;;;5035614;28;20410;-29
2022/07/16 16:07:48;;;;;;;;;;;;;;;;;;5037003;28;19913;-29
2022/07/16 16:10:15;;;;;;;;;;;;;;;;;;5036729;28;19909;-29
2022/07/16 16:12:42;;;;;;;;;;;;;;;;;;5036568;28;19970;-29
2022/07/16 16:15:08;;;;;;;;;;;;;;;;;;5035588;28;19909;-29
2022/07/16 16:17:34;;;;;;;;;;;;;;;;;;5036849;28;19913;-29
2022/07/16 16:20:00;;;;;;;;;;;;;;;;;;5036494;28;19920;-29
2022/07/16 16:22:26;;;;;;;;;;;;;;;;;;5036565;28;19913;-29
2022/07/16 16:24:53;;;;;;;;;;;;;;;;;;5036403;28;19913;-29
2022/07/16 16:27:19;;;;;;;;;;;;;;;;;;5036587;28;20307;-29
2022/07/16 16:29:45;;;;;;;;;;;;;;;;;;5036319;28;20340;-29
2022/07/16 16:32:11;;;;;;;;;;;;;;;;;;5035231;28;19924;-29
2022/07/16 16:34:37;;;;;;;;;;;;;;;;;;5035268;28;19913;-29
2022/07/16 16:37:03;;;;;;;;;;;;;;;;;;5036158;28;19921;-30
2022/07/16 16:39:29;;;;;;;;;;;;;;;;;;5036143;28;19917;-33
2022/07/16 16:41:55;;;;;;;;;;;;;;;;;;5035059;28;19941;-29
2022/07/16 16:44:21;;;;;;;;;;;;;;;;;;5036106;28;19909;-29
2022/07/16 16:46:47;;;;;;;;;;;;;;;;;;5036189;28;20335;-29
2022/07/16 16:49:13;;;;;;;;;;;;;;;;;;5036239;28;19916;-29
2022/07/16 16:51:39;;;;;;;;;;;;;;;;;;5035882;28;19913;-30